createdAt,value
2022-08-22T00:01:39.358Z,1.80
2022-08-22T00:02:42.243Z,1.60
2022-08-22T00:03:04.653Z,1.20
2022-08-22T00:03:16.002Z,1.70
2022-08-22T00:04:07.217Z,1.95
2022-08-22T00:06:38.051Z,1.67
2022-08-22T00:11:52.936Z,1.70
2022-08-22T00:14:24.763Z,1.88
2022-08-22T00:17:01.872Z,1.40
2022-08-22T00:19:35.879Z,1.75
2022-08-22T00:22:12.817Z,2.08
2022-08-22T00:28:18.441Z,2.00
2022-08-22T00:30:50.625Z,1.73
2022-08-22T00:33:26.829Z,1.98
2022-08-22T00:36:02.624Z,1.60
2022-08-22T00:38:34.976Z,2.03
2022-08-22T00:41:06.551Z,1.90
2022-08-22T00:43:37.066Z,1.95
2022-08-22T00:46:20.111Z,1.50
2022-08-22T00:48:57.188Z,2.00
2022-08-22T00:51:25.263Z,1.58
2022-08-22T00:54:17.676Z,2.35
2022-08-22T00:56:58.191Z,1.98
2022-08-22T00:59:53.785Z,1.75
2022-08-22T01:02:29.625Z,2.38
2022-08-22T01:05:00.768Z,1.63
2022-08-22T01:07:47.357Z,1.70
2022-08-22T01:10:18.105Z,1.77
2022-08-22T01:13:06.046Z,1.70
2022-08-22T01:15:36.373Z,1.75
2022-08-22T01:18:23.063Z,1.67
2022-08-22T01:21:24.080Z,1.98
2022-08-22T01:24:04.080Z,1.70
2022-08-22T01:26:59.639Z,1.77
2022-08-22T01:29:30.634Z,1.52
2022-08-22T01:32:24.576Z,1.80
2022-08-22T01:34:58.684Z,2.22
2022-08-22T01:37:29.448Z,2.40
2022-08-22T01:42:42.954Z,1.85
2022-08-22T01:45:16.811Z,2.30
2022-08-22T01:47:50.701Z,1.88
2022-08-22T01:50:40.830Z,2.42
2022-08-22T01:53:12.741Z,2.45
2022-08-22T01:55:40.492Z,2.60
2022-08-22T01:58:35.234Z,2.45
2022-08-22T02:01:17.497Z,1.88
2022-08-22T02:04:04.813Z,2.20
2022-08-22T02:06:36.799Z,1.60
2022-08-22T02:09:04.642Z,2.38
2022-08-22T02:11:35.722Z,3.15
2022-08-22T02:14:15.619Z,2.00
2022-08-22T02:16:44.920Z,1.73
2022-08-22T02:19:12.554Z,2.25
2022-08-22T02:21:50.519Z,2.22
2022-08-22T02:24:36.968Z,2.97
2022-08-22T02:27:20.411Z,2.00
2022-08-22T02:30:00.782Z,1.85
2022-08-22T02:32:51.585Z,1.98
2022-08-22T02:35:33.299Z,2.20
2022-08-22T02:38:04.137Z,1.75
2022-08-22T02:40:44.845Z,2.13
2022-08-22T02:43:19.537Z,2.50
2022-08-22T02:45:51.628Z,1.83
2022-08-22T02:48:28.576Z,2.63
2022-08-22T02:51:32.010Z,2.35
2022-08-22T02:54:18.157Z,2.70
2022-08-22T02:56:49.739Z,2.10
2022-08-22T02:59:40.266Z,2.15
2022-08-22T03:02:30.426Z,1.98
2022-08-22T03:05:00.998Z,2.13
2022-08-22T03:07:33.295Z,2.40
2022-08-22T03:10:04.231Z,2.65
2022-08-22T03:12:36.316Z,2.38
2022-08-22T03:15:04.042Z,2.20
2022-08-22T03:17:39.637Z,2.30
2022-08-22T03:20:10.398Z,1.95
2022-08-22T03:22:49.188Z,1.85
2022-08-22T03:25:24.233Z,1.85
2022-08-22T03:28:08.893Z,2.10
2022-08-22T03:30:39.696Z,2.17
2022-08-22T03:33:13.238Z,2.67
2022-08-22T03:35:46.638Z,2.72
2022-08-22T03:38:32.602Z,1.95
2022-08-22T03:41:27.419Z,2.20
2022-08-22T03:44:14.397Z,1.95
2022-08-22T03:46:45.907Z,1.98
2022-08-22T03:49:31.256Z,1.85
2022-08-22T03:52:17.335Z,2.00
2022-08-22T03:54:51.601Z,2.30
2022-08-22T03:57:44.293Z,2.20
2022-08-22T04:00:12.017Z,1.95
2022-08-22T04:02:43.065Z,1.70
2022-08-22T04:05:30.618Z,2.22
2022-08-22T04:08:01.145Z,2.03
2022-08-22T04:10:47.587Z,1.98
2022-08-22T04:13:35.411Z,2.55
2022-08-22T04:16:08.806Z,2.63
2022-08-22T04:18:39.395Z,2.45
2022-08-22T04:21:07.700Z,2.55
2022-08-22T04:23:54.280Z,2.20
2022-08-22T04:26:34.372Z,2.65
2022-08-22T04:29:22.249Z,2.47
2022-08-22T04:32:14.119Z,2.05
2022-08-22T04:34:45.425Z,2.30
2022-08-22T04:37:28.458Z,2.08
2022-08-22T04:40:00.580Z,2.10
2022-08-22T04:42:33.502Z,2.70
2022-08-22T04:45:23.324Z,2.53
2022-08-22T04:47:57.682Z,2.28
2022-08-22T04:50:44.521Z,2.28
2022-08-22T04:53:18.743Z,2.45
2022-08-22T04:56:07.653Z,2.10
2022-08-22T04:58:41.972Z,2.80
2022-08-22T05:01:19.022Z,2.75
2022-08-22T05:03:53.415Z,2.17
2022-08-22T05:06:22.887Z,2.20
2022-08-22T05:08:53.748Z,2.58
2022-08-22T05:11:26.505Z,2.72
2022-08-22T05:14:00.123Z,2.53
2022-08-22T05:16:42.920Z,2.72
2022-08-22T05:19:17.046Z,2.85
2022-08-22T05:21:48.153Z,2.17
2022-08-22T05:24:20.109Z,2.42
2022-08-22T05:26:49.720Z,2.35
2022-08-22T05:29:20.074Z,2.30
2022-08-22T05:31:50.097Z,2.20
2022-08-22T05:34:21.159Z,2.63
2022-08-22T05:36:50.833Z,2.20
2022-08-22T05:39:22.175Z,2.40
2022-08-22T05:41:55.068Z,2.33
2022-08-22T05:44:22.802Z,2.75
2022-08-22T05:46:53.826Z,2.75
2022-08-22T05:49:23.566Z,2.35
2022-08-22T05:52:04.153Z,1.92
2022-08-22T05:54:37.917Z,2.20
2022-08-22T05:57:07.932Z,2.40
2022-08-22T05:59:38.809Z,1.93
2022-08-22T06:02:06.575Z,1.77
2022-08-22T06:04:45.741Z,2.75
2022-08-22T06:07:18.330Z,2.47
2022-08-22T06:09:48.997Z,3.15
2022-08-22T06:12:33.089Z,2.97
2022-08-22T06:15:26.501Z,2.38
2022-08-22T06:18:07.797Z,3.35
2022-08-22T06:20:43.063Z,3.65
2022-08-22T06:23:15.427Z,2.72
2022-08-22T06:25:45.231Z,3.00
2022-08-22T06:28:19.072Z,2.72
2022-08-22T06:30:47.414Z,3.15
2022-08-22T06:33:18.974Z,2.58
2022-08-22T06:36:10.872Z,2.90
2022-08-22T06:38:59.719Z,3.20
2022-08-22T06:41:29.509Z,2.35
2022-08-22T06:43:58.359Z,2.95
2022-08-22T06:46:27.800Z,2.78
2022-08-22T06:48:56.556Z,3.20
2022-08-22T06:51:29.577Z,4.32
2022-08-22T06:54:00.080Z,3.80
2022-08-22T06:56:30.692Z,3.80
2022-08-22T06:58:59.699Z,3.10
2022-08-22T07:01:32.346Z,2.80
2022-08-22T07:04:05.262Z,2.75
2022-08-22T07:06:35.967Z,2.60
2022-08-22T07:09:05.789Z,3.13
2022-08-22T07:11:40.206Z,2.65
2022-08-22T07:14:11.245Z,2.45
2022-08-22T07:16:44.205Z,2.15
2022-08-22T07:19:24.819Z,2.42
2022-08-22T07:21:53.087Z,2.88
2022-08-22T07:24:23.206Z,3.25
2022-08-22T07:26:53.014Z,3.30
2022-08-22T07:29:29.973Z,2.20
2022-08-22T07:32:03.540Z,2.30
2022-08-22T07:34:50.707Z,2.20
2022-08-22T07:37:25.679Z,2.35
2022-08-22T07:40:15.599Z,3.03
2022-08-22T07:42:57.197Z,2.47
2022-08-22T07:45:28.060Z,2.15
2022-08-22T07:47:55.871Z,2.15
2022-08-22T07:53:01.754Z,2.00
2022-08-22T07:55:29.619Z,2.20
2022-08-22T07:58:01.667Z,2.92
2022-08-22T08:00:32.986Z,2.08
2022-08-22T08:03:06.541Z,2.05
2022-08-22T08:05:36.269Z,1.75
2022-08-22T08:08:16.517Z,2.23
2022-08-22T08:10:44.681Z,2.15
2022-08-22T08:13:14.300Z,2.20
2022-08-22T08:15:45.863Z,1.95
2022-08-22T08:18:19.394Z,1.70
2022-08-22T08:20:50.937Z,2.80
2022-08-22T08:23:23.319Z,2.47
2022-08-22T08:25:54.803Z,2.30
2022-08-22T08:28:35.227Z,2.33
2022-08-22T08:31:08.316Z,2.15
2022-08-22T08:33:38.536Z,2.78
2022-08-22T08:36:11.310Z,2.40
2022-08-22T08:38:45.067Z,2.20
2022-08-22T08:41:12.737Z,2.00
2022-08-22T08:43:43.496Z,2.20
2022-08-22T08:46:17.549Z,2.05
2022-08-22T08:48:51.930Z,2.65
2022-08-22T08:51:19.618Z,2.33
2022-08-22T08:54:05.035Z,2.33
2022-08-22T08:56:36.230Z,2.25
2022-08-22T08:59:22.774Z,2.40
2022-08-22T09:01:56.610Z,2.25
2022-08-22T09:04:34.825Z,2.60
2022-08-22T09:07:25.232Z,2.45
2022-08-22T09:09:53.311Z,2.03
2022-08-22T09:12:37.424Z,2.15
2022-08-22T09:15:22.177Z,2.03
2022-08-22T09:18:09.597Z,2.60
2022-08-22T09:20:47.695Z,3.17
2022-08-22T09:23:16.155Z,2.42
2022-08-22T09:25:53.018Z,2.70
2022-08-22T09:28:47.942Z,2.30
2022-08-22T09:31:51.492Z,2.10
2022-08-22T09:34:26.218Z,2.35
2022-08-22T09:37:04.523Z,3.05
2022-08-22T09:39:36.268Z,2.17
2022-08-22T09:42:21.888Z,1.95
2022-08-22T09:44:52.919Z,2.55
2022-08-22T09:47:24.500Z,2.83
2022-08-22T09:50:02.079Z,2.00
2022-08-22T09:52:53.918Z,2.28
2022-08-22T09:55:22.705Z,1.98
2022-08-22T09:58:23.683Z,1.70
2022-08-22T10:01:00.801Z,1.92
2022-08-22T10:03:51.839Z,1.73
2022-08-22T10:06:25.853Z,2.25
2022-08-22T10:09:19.706Z,2.42
2022-08-22T10:11:49.780Z,1.92
2022-08-22T10:17:09.135Z,2.00
2022-08-22T10:19:42.749Z,2.00
2022-08-22T10:22:30.336Z,1.98
2022-08-22T10:24:59.207Z,2.05
2022-08-22T10:27:33.782Z,2.13
2022-08-22T10:30:13.235Z,2.33
2022-08-22T10:32:47.557Z,2.00
2022-08-22T10:35:28.131Z,1.60
2022-08-22T10:38:10.700Z,2.53
2022-08-22T10:40:43.234Z,2.92
2022-08-22T10:43:19.419Z,1.98
2022-08-22T10:45:48.681Z,2.00
2022-08-22T10:50:49.835Z,1.98
2022-08-22T10:53:36.314Z,1.98
2022-08-22T10:56:27.348Z,1.67
2022-08-22T10:59:05.934Z,1.90
2022-08-22T11:01:41.760Z,1.80
2022-08-22T11:04:45.806Z,2.03
2022-08-22T11:07:39.637Z,2.00
2022-08-22T11:10:20.298Z,1.98
2022-08-22T11:12:58.999Z,2.95
2022-08-22T11:15:52.530Z,1.85
2022-08-22T11:18:26.712Z,2.13
2022-08-22T11:21:18.461Z,2.38
2022-08-22T11:24:35.470Z,1.90
2022-08-22T11:27:12.898Z,2.08
2022-08-22T11:29:43.501Z,1.75
2022-08-22T11:32:38.573Z,1.90
2022-08-22T11:35:27.376Z,2.28
2022-08-22T11:38:04.357Z,2.20
2022-08-22T11:40:32.349Z,2.13
2022-08-22T11:45:36.963Z,1.75
2022-08-22T11:48:13.357Z,2.17
2022-08-22T11:50:52.513Z,2.47
2022-08-22T11:53:35.766Z,2.75
2022-08-22T11:56:10.467Z,1.88
2022-08-22T11:58:53.800Z,2.00
2022-08-22T12:01:43.069Z,2.10
2022-08-22T12:04:12.860Z,2.45
2022-08-22T12:07:02.868Z,1.80
2022-08-22T12:09:43.777Z,1.63
2022-08-22T12:12:24.117Z,1.80
2022-08-22T12:15:12.117Z,2.38
2022-08-22T12:17:55.576Z,1.98
2022-08-22T12:20:29.205Z,1.90
2022-08-22T12:22:57.218Z,2.95
2022-08-22T12:25:49.464Z,1.90
2022-08-22T12:28:24.464Z,2.40
2022-08-22T12:30:58.497Z,1.92
2022-08-22T12:33:26.258Z,1.85
2022-08-22T12:35:58.271Z,2.00
2022-08-22T12:38:37.804Z,1.70
2022-08-22T12:41:27.663Z,1.58
2022-08-22T12:44:17.316Z,1.80
2022-08-22T12:47:05.534Z,1.70
2022-08-22T12:49:37.031Z,1.75
2022-08-22T12:52:04.830Z,1.98
2022-08-22T12:54:47.883Z,1.77
2022-08-22T12:57:39.290Z,1.77
2022-08-22T13:00:26.684Z,2.10
2022-08-22T13:02:55.767Z,1.48
2022-08-22T13:05:25.230Z,2.03
2022-08-22T13:08:04.434Z,1.85
2022-08-22T13:10:51.608Z,1.50
2022-08-22T13:13:37.139Z,1.48
2022-08-22T13:16:12.025Z,2.13
2022-08-22T13:18:53.570Z,1.70
2022-08-22T13:21:30.352Z,1.92
2022-08-22T13:24:39.148Z,1.73
2022-08-22T13:27:17.084Z,1.70
2022-08-22T13:30:00.034Z,1.90
2022-08-22T13:37:30.874Z,1.83
2022-08-22T13:40:06.204Z,2.38
2022-08-22T13:49:13.390Z,1.77
2022-08-22T13:52:29.002Z,1.90
2022-08-22T13:54:58.282Z,1.70
2022-08-22T13:57:40.685Z,2.33
2022-08-22T14:00:12.709Z,1.55
2022-08-22T14:03:08.262Z,1.83
2022-08-22T14:05:47.296Z,1.60
2022-08-22T14:08:28.132Z,2.38
2022-08-22T14:11:02.157Z,1.95
2022-08-22T14:13:56.227Z,1.63
2022-08-22T14:16:27.650Z,1.40
2022-08-22T14:19:09.134Z,1.70
2022-08-22T14:21:59.516Z,1.67
2022-08-22T14:24:33.643Z,1.70
2022-08-22T14:27:19.176Z,1.92
2022-08-22T14:29:51.032Z,2.00
2022-08-22T14:32:25.938Z,1.98
2022-08-22T14:35:03.749Z,1.98
2022-08-22T14:37:38.932Z,1.65
2022-08-22T14:40:12.511Z,1.42
2022-08-22T14:42:52.137Z,1.73
2022-08-22T14:48:29.602Z,1.80
2022-08-22T14:50:46.263Z,1.98
2022-08-22T14:53:25.111Z,1.67
2022-08-22T14:55:56.395Z,1.50
2022-08-22T14:58:27.667Z,1.63
2022-08-22T15:00:57.246Z,2.10
2022-08-22T15:06:07.059Z,1.80
2022-08-22T15:08:36.875Z,1.58
2022-08-22T15:11:23.131Z,2.15
2022-08-22T15:14:03.494Z,1.90
2022-08-22T15:16:46.443Z,1.77
2022-08-22T15:19:33.491Z,1.55
2022-08-22T15:22:25.694Z,1.95
2022-08-22T15:25:13.315Z,1.60
2022-08-22T15:27:48.798Z,1.38
2022-08-22T15:30:20.632Z,2.20
2022-08-22T15:32:49.692Z,1.88
2022-08-22T15:35:27.812Z,1.65
2022-08-22T15:38:06.505Z,1.85
2022-08-22T15:40:45.656Z,1.67
2022-08-22T15:43:16.268Z,1.50
2022-08-22T15:45:51.511Z,2.15
2022-08-22T15:48:36.707Z,1.65
2022-08-22T15:51:13.369Z,1.52
2022-08-22T15:54:01.634Z,1.80
2022-08-22T15:56:34.487Z,1.77
2022-08-22T15:59:26.438Z,2.28
2022-08-22T16:02:12.843Z,2.40
2022-08-22T16:04:47.639Z,1.80
2022-08-22T16:07:27.383Z,1.77
2022-08-22T16:09:59.711Z,2.35
2022-08-22T16:12:31.141Z,1.70
2022-08-22T16:14:59.586Z,2.13
2022-08-22T16:17:30.298Z,1.85
2022-08-22T16:20:19.359Z,1.80
2022-08-22T16:22:57.346Z,1.85
2022-08-22T16:25:44.580Z,1.83
2022-08-22T16:28:57.958Z,1.95
2022-08-22T16:31:29.601Z,2.05
2022-08-22T16:34:00.055Z,2.30
2022-08-22T16:36:39.332Z,2.10
2022-08-22T16:39:22.877Z,1.98
2022-08-22T16:41:54.872Z,1.80
2022-08-22T16:44:33.124Z,1.65
2022-08-22T16:47:18.776Z,1.92
2022-08-22T16:49:52.869Z,2.88
2022-08-22T16:52:26.833Z,2.08
2022-08-22T16:54:57.807Z,1.95
2022-08-22T16:57:35.299Z,1.70
2022-08-22T17:00:13.222Z,1.70
2022-08-22T17:02:51.206Z,1.85
2022-08-22T17:05:22.707Z,1.77
2022-08-22T17:07:59.860Z,2.08
2022-08-22T17:10:30.281Z,2.08
2022-08-22T17:15:47.823Z,3.15
2022-08-22T17:18:40.331Z,1.88
2022-08-22T17:21:12.031Z,1.90
2022-08-22T17:23:55.343Z,1.88
2022-08-22T17:26:30.026Z,2.25
2022-08-22T17:29:07.045Z,1.77
2022-08-22T17:32:02.341Z,2.10
2022-08-22T17:34:39.540Z,1.85
2022-08-22T17:37:09.189Z,2.33
2022-08-22T17:39:58.899Z,2.03
2022-08-22T17:42:37.680Z,1.98
2022-08-22T17:45:28.369Z,2.40
2022-08-22T17:48:06.003Z,3.35
2022-08-22T17:50:47.018Z,1.98
2022-08-22T17:53:26.080Z,2.42
2022-08-22T17:56:32.773Z,1.95
2022-08-22T17:59:05.995Z,2.53
2022-08-22T18:04:31.550Z,2.03
2022-08-22T18:07:07.390Z,2.70
2022-08-22T18:09:43.947Z,2.10
2022-08-22T18:12:19.870Z,2.30
2022-08-22T18:17:40.796Z,2.50
2022-08-22T18:20:15.955Z,2.47
2022-08-22T18:22:50.918Z,3.72
2022-08-22T18:25:21.960Z,1.92
2022-08-22T18:27:52.209Z,2.05
2022-08-22T18:30:29.165Z,1.95
2022-08-22T18:33:08.228Z,2.10
2022-08-22T18:35:42.318Z,1.90
2022-08-22T18:38:35.990Z,1.77
2022-08-22T18:41:24.824Z,2.10
2022-08-22T18:44:12.006Z,2.85
2022-08-22T18:46:42.633Z,2.08
2022-08-22T18:49:33.659Z,2.47
2022-08-22T18:52:14.633Z,2.30
2022-08-22T18:55:02.630Z,2.58
2022-08-22T18:57:42.588Z,2.08
2022-08-22T19:03:05.143Z,2.00
2022-08-22T19:06:04.465Z,2.33
2022-08-22T19:08:46.873Z,2.40
2022-08-22T19:11:35.140Z,2.05
2022-08-22T19:14:25.132Z,2.15
2022-08-22T19:17:00.917Z,2.22
2022-08-22T19:22:43.333Z,2.45
2022-08-22T19:28:11.666Z,2.15
2022-08-22T19:30:53.021Z,2.65
2022-08-22T19:33:39.061Z,3.17
2022-08-22T19:36:08.719Z,2.90
2022-08-22T19:38:57.761Z,2.60
2022-08-22T19:41:38.082Z,2.67
2022-08-22T19:44:21.219Z,2.30
2022-08-22T19:47:04.441Z,2.55
2022-08-22T19:49:53.813Z,2.58
2022-08-22T19:52:24.726Z,2.67
2022-08-22T19:55:04.773Z,2.47
2022-08-22T19:57:35.998Z,2.92
2022-08-22T20:00:04.248Z,3.00
2022-08-22T20:02:49.861Z,2.83
2022-08-22T20:05:27.826Z,2.55
2022-08-22T20:08:05.352Z,2.72
2022-08-22T20:10:41.632Z,3.30
2022-08-22T20:13:31.317Z,3.50
2022-08-22T20:16:02.267Z,2.67
2022-08-22T20:18:55.580Z,2.78
2022-08-22T20:21:48.811Z,2.33
2022-08-22T20:24:23.395Z,2.42
2022-08-22T20:27:12.766Z,2.13
2022-08-22T20:29:43.639Z,2.53
2022-08-22T20:32:14.258Z,2.50
2022-08-22T20:37:40.381Z,2.30
2022-08-22T20:40:54.610Z,2.72
2022-08-22T20:43:28.426Z,2.27
2022-08-22T20:46:33.385Z,2.90
2022-08-22T20:49:04.571Z,2.78
2022-08-22T20:51:35.664Z,2.42
2022-08-22T20:54:10.225Z,2.88
2022-08-22T20:56:53.215Z,2.78
2022-08-22T20:59:27.516Z,2.42
2022-08-22T21:01:59.975Z,3.00
2022-08-22T21:04:29.133Z,2.72
2022-08-22T21:07:07.449Z,2.75
2022-08-22T21:09:56.789Z,2.53
2022-08-22T21:12:30.558Z,2.78
2022-08-22T21:14:58.209Z,3.05
2022-08-22T21:17:29.159Z,2.75
2022-08-22T21:20:21.323Z,2.97
2022-08-22T21:22:49.234Z,3.20
2022-08-22T21:25:16.923Z,2.70
2022-08-22T21:27:50.900Z,2.85
2022-08-22T21:30:26.815Z,2.70
2022-08-22T21:32:57.829Z,3.42
2022-08-22T21:35:35.811Z,3.38
2022-08-22T21:38:10.219Z,2.90
2022-08-22T21:40:39.652Z,2.53
2022-08-22T21:43:12.801Z,3.20
2022-08-22T21:45:41.247Z,2.88
2022-08-22T21:48:28.353Z,4.30
2022-08-22T21:50:56.220Z,2.58
2022-08-22T21:53:28.231Z,3.20
2022-08-22T21:57:05.513Z,2.58
2022-08-22T21:59:49.333Z,2.90
2022-08-22T22:02:36.532Z,2.67
2022-08-22T22:05:13.743Z,3.10
2022-08-22T22:07:45.678Z,2.67
2022-08-22T22:10:28.719Z,2.92
2022-08-22T22:13:02.839Z,3.35
2022-08-22T22:15:52.810Z,3.60
2022-08-22T22:18:26.389Z,3.20
2022-08-22T22:20:54.795Z,2.95
2022-08-22T22:23:22.965Z,3.38
2022-08-22T22:25:51.279Z,3.47
2022-08-22T22:28:21.437Z,2.90
2022-08-22T22:30:53.556Z,3.33
2022-08-22T22:33:23.667Z,2.72
2022-08-22T22:35:52.803Z,3.20
2022-08-22T22:38:24.037Z,2.50
2022-08-22T22:40:52.803Z,3.28
2022-08-22T22:43:20.507Z,2.70
2022-08-22T22:45:48.327Z,2.70
2022-08-22T22:48:17.512Z,2.63
2022-08-22T22:50:52.619Z,3.17
2022-08-22T22:53:21.320Z,2.60
2022-08-22T22:55:59.774Z,3.10
2022-08-22T22:58:29.018Z,3.38
2022-08-22T23:00:58.188Z,2.55
2022-08-22T23:03:26.825Z,2.55
2022-08-22T23:05:54.572Z,2.58
2022-08-22T23:08:25.117Z,4.72
2022-08-22T23:10:52.885Z,2.78
2022-08-22T23:13:28.141Z,2.83
2022-08-22T23:15:55.937Z,3.28
2022-08-22T23:18:30.756Z,2.75
2022-08-22T23:21:09.579Z,2.70
2022-08-22T23:23:37.309Z,3.08
2022-08-22T23:26:05.074Z,2.80
2022-08-22T23:28:32.848Z,3.53
2022-08-22T23:31:14.332Z,2.80
2022-08-22T23:33:42.584Z,2.92
2022-08-22T23:36:11.629Z,3.03
2022-08-22T23:38:39.448Z,2.45
2022-08-22T23:41:09.931Z,2.80
2022-08-22T23:43:41.138Z,2.80
2022-08-22T23:46:08.994Z,2.72
2022-08-22T23:48:36.830Z,3.00
2022-08-22T23:51:04.715Z,3.22
2022-08-22T23:53:32.559Z,2.90
2022-08-22T23:56:19.259Z,3.03
2022-08-22T23:58:53.173Z,3.00
